Big Bear Station Historical Data
Daily Summary for June 21, 2019 Units:  English    Metric   Both
Next Day »
Daily Weekly Monthly Yearly Custom
  High: Low: Average:
Temperature: 73 °F 47.5 °F 60 °F
Dew Point: 51.7 °F 25 °F 38.3 °F
Humidity: 69% 30% 45%
Wind Speed: 4.7mph 0mph 0.3mph
Wind Gust: -999mph - -
Wind- - West
Pressure: 23.44 in 23.39 in -
Precipitation: 0 in    
Historical Graphs
 
 
Tabular Data for June 21, 2019
Time Temperature Dew Point Pressure Wind Wind Speed Wind Gust Humidity Rainfall Rate (Hourly)
00:02 56.1 °F 35 °F 23.42 in Calm   -999 mph 45% 0.00 in
00:17 55.4 °F 36.6 °F 23.42 in Calm   -999 mph 49% 0.00 in
00:33 55.4 °F 37.1 °F 23.42 in Calm   -999 mph 50% 0.00 in
00:48 55.6 °F 37.2 °F 23.41 in Calm   -999 mph 50% 0.00 in
01:03 55.2 °F 38.4 °F 23.41 in ESE 3.2 mph -999 mph 53% 0.00 in
01:18 55.4 °F 37.6 °F 23.41 in Calm   -999 mph 51% 0.00 in
01:34 55 °F 38.2 °F 23.41 in NW 3.2 mph -999 mph 53% 0.00 in
01:49 54.9 °F 37.6 °F 23.41 in Calm   -999 mph 52% 0.00 in
02:04 54.7 °F 37.9 °F 23.40 in Calm   -999 mph 53% 0.00 in
02:19 54.5 °F 37.2 °F 23.41 in Calm   -999 mph 52% 0.00 in
02:34 54.1 °F 37.3 °F 23.40 in Calm   -999 mph 53% 0.00 in
02:50 53.8 °F 37.1 °F 23.40 in West 1.1 mph -999 mph 53% 0.00 in
03:05 54.1 °F 34.8 °F 23.40 in Calm   -999 mph 48% 0.00 in
03:20 54.5 °F 30.7 °F 23.40 in NW 1.1 mph -999 mph 40% 0.00 in
03:35 55 °F 27.8 °F 23.40 in Calm   -999 mph 35% 0.00 in
03:50 55 °F 29.8 °F 23.39 in Calm   -999 mph 38% 0.00 in
04:06 54.1 °F 30.3 °F 23.40 in Calm   -999 mph 40% 0.00 in
04:21 53.1 °F 28.1 °F 23.40 in Calm   -999 mph 38% 0.00 in
04:36 51.4 °F 28.5 °F 23.40 in Calm   -999 mph 41% 0.00 in
04:51 50.9 °F 26.8 °F 23.40 in Calm   -999 mph 39% 0.00 in
05:06 50.4 °F 26.4 °F 23.41 in Calm   -999 mph 39% 0.00 in
05:22 49.5 °F 26.8 °F 23.41 in Calm   -999 mph 41% 0.00 in
05:37 48.7 °F 25.4 °F 23.41 in Calm   -999 mph 40% 0.00 in
05:52 48.2 °F 25 °F 23.41 in Calm   -999 mph 40% 0.00 in
06:07 47.8 °F 26.4 °F 23.41 in Calm   -999 mph 43% 0.00 in
06:22 47.5 °F 30.3 °F 23.40 in Calm   -999 mph 51% 0.00 in
06:38 47.7 °F 32.3 °F 23.41 in Calm   -999 mph 55% 0.00 in
06:53 48.2 °F 33.7 °F 23.41 in Calm   -999 mph 57% 0.00 in
07:08 49.8 °F 34.3 °F 23.41 in Calm   -999 mph 55% 0.00 in
07:23 52.2 °F 35.1 °F 23.42 in Calm   -999 mph 52% 0.00 in
07:39 54.1 °F 31.5 °F 23.42 in Calm   -999 mph 42% 0.00 in
07:54 55.6 °F 30.4 °F 23.42 in Calm   -999 mph 38% 0.00 in
08:09 57.6 °F 29.4 °F 23.43 in Calm   -999 mph 34% 0.00 in
08:24 59.4 °F 30.3 °F 23.43 in Calm   -999 mph 33% 0.00 in
08:39 60.1 °F 30.1 °F 23.43 in Calm   -999 mph 32% 0.00 in
08:55 61.3 °F 32.7 °F 23.43 in Calm   -999 mph 34% 0.00 in
09:10 62.1 °F 36.2 °F 23.43 in Calm   -999 mph 38% 0.00 in
09:25 62.8 °F 31.7 °F 23.43 in Calm   -999 mph 31% 0.00 in
09:40 63.9 °F 34.2 °F 23.43 in Calm   -999 mph 33% 0.00 in
09:55 65.1 °F 36 °F 23.42 in Calm   -999 mph 34% 0.00 in
10:11 66 °F 35.3 °F 23.42 in Calm   -999 mph 32% 0.00 in
10:26 66.9 °F 34.5 °F 23.42 in Calm   -999 mph 30% 0.00 in
10:41 67.3 °F 35.6 °F 23.42 in Calm   -999 mph 31% 0.00 in
10:56 67.3 °F 42.8 °F 23.42 in Calm   -999 mph 41% 0.00 in
11:11 67.3 °F 41.5 °F 23.42 in Calm   -999 mph 39% 0.00 in
11:27 68.5 °F 38.3 °F 23.43 in NW 4.7 mph -999 mph 33% 0.00 in
11:42 68.9 °F 38.6 °F 23.43 in Calm   -999 mph 33% 0.00 in
11:57 71.1 °F 42.8 °F 23.43 in SW 1.1 mph -999 mph 36% 0.00 in
12:12 71.2 °F 46.9 °F 23.42 in Calm   -999 mph 42% 0.00 in
12:27 71.6 °F 48.5 °F 23.42 in Calm   -999 mph 44% 0.00 in
12:43 71.6 °F 49.7 °F 23.42 in Calm   -999 mph 46% 0.00 in
12:58 70.3 °F 50.8 °F 23.42 in Calm   -999 mph 50% 0.00 in
13:13 71.2 °F 48.8 °F 23.43 in Calm   -999 mph 45% 0.00 in
13:28 71.2 °F 48.8 °F 23.42 in Calm   -999 mph 45% 0.00 in
13:44 71.8 °F 49.3 °F 23.43 in NW 3.2 mph -999 mph 45% 0.00 in
13:59 72.9 °F 45.1 °F 23.43 in Calm   -999 mph 37% 0.00 in
14:14 73 °F 40.6 °F 23.43 in NNW 3.2 mph -999 mph 31% 0.00 in
14:29 72.5 °F 39.3 °F 23.43 in NW 2.2 mph -999 mph 30% 0.00 in
14:45 70.7 °F 47.1 °F 23.42 in Calm   -999 mph 43% 0.00 in
15:00 71.2 °F 48.2 °F 23.42 in Calm   -999 mph 44% 0.00 in
15:15 69.1 °F 49.1 °F 23.42 in Calm   -999 mph 49% 0.00 in
15:30 69.1 °F 50.2 °F 23.42 in NNW 1.1 mph -999 mph 51% 0.00 in
15:45 68.2 °F 49.4 °F 23.42 in NNW 2.7 mph -999 mph 51% 0.00 in
16:01 67.8 °F 46.8 °F 23.42 in NW 2.2 mph -999 mph 47% 0.00 in
16:16 66.6 °F 47.9 °F 23.42 in Calm   -999 mph 51% 0.00 in
16:31 67.3 °F 47.5 °F 23.42 in NNE 2.2 mph -999 mph 49% 0.00 in
16:46 67.5 °F 47.7 °F 23.42 in Calm   -999 mph 49% 0.00 in
17:01 70.2 °F 50.1 °F 23.42 in Calm   -999 mph 49% 0.00 in
17:17 70 °F 48.8 °F 23.41 in Calm   -999 mph 47% 0.00 in
17:32 70 °F 50 °F 23.41 in Calm   -999 mph 49% 0.00 in
17:48 71.1 °F 51 °F 23.41 in Calm   -999 mph 49% 0.00 in
18:03 70 °F 50.5 °F 23.41 in Calm   -999 mph 50% 0.00 in
18:18 68.9 °F 50 °F 23.41 in Calm   -999 mph 51% 0.00 in
18:33 70.5 °F 49.3 °F 23.41 in Calm   -999 mph 47% 0.00 in
18:49 69.3 °F 50.9 °F 23.41 in Calm   -999 mph 52% 0.00 in
19:04 65.5 °F 51.7 °F 23.41 in Calm   -999 mph 61% 0.00 in
19:19 63.9 °F 47.4 °F 23.41 in Calm   -999 mph 55% 0.00 in
19:34 60.8 °F 44.5 °F 23.41 in Calm   -999 mph 55% 0.00 in
19:49 55.8 °F 44.2 °F 23.42 in Calm   -999 mph 65% 0.00 in
20:05 54.9 °F 44.9 °F 23.40 in Calm   -999 mph 69% 0.00 in
20:20 54.9 °F 42.1 °F 23.41 in Calm   -999 mph 62% 0.00 in
20:35 53.4 °F 41.9 °F 23.41 in Calm   -999 mph 65% 0.00 in
20:50 52.5 °F 36.3 °F 23.41 in Calm   -999 mph 54% 0.00 in
21:05 51.8 °F 33.7 °F 23.41 in Calm   -999 mph 50% 0.00 in
21:21 51.1 °F 32.6 °F 23.40 in Calm   -999 mph 49% 0.00 in
21:36 53.6 °F 35.4 °F 23.42 in Calm   -999 mph 50% 0.00 in
21:51 53.8 °F 34 °F 23.43 in Calm   -999 mph 47% 0.00 in
22:06 52.3 °F 31.6 °F 23.44 in Calm   -999 mph 45% 0.00 in
22:21 52 °F 29 °F 23.44 in Calm   -999 mph 41% 0.00 in
22:37 52 °F 28.4 °F 23.43 in Calm   -999 mph 40% 0.00 in
22:52 52 °F 28.4 °F 23.43 in Calm   -999 mph 40% 0.00 in
23:07 50.5 °F 30.5 °F 23.43 in Calm   -999 mph 46% 0.00 in
23:22 50.7 °F 30.7 °F 23.43 in Calm   -999 mph 46% 0.00 in
23:38 49.1 °F 29.2 °F 23.43 in Calm   -999 mph 46% 0.00 in
23:53 48 °F 29.7 °F 23.43 in Calm   -999 mph 49% 0.00 in
Big Bear CA Weather